Time;durP1;ratioP1;P1;durP2;ratioP2;P2;SDS_P1;SDS_P2;PMS_P1;PMS_P2;Temp;Humidity;BMP_temperature;BMP_pressure;BME280_temperature;BME280_humidity;BME280_pressure;Samples;Min_cycle;Max_cycle;Signal;HPM_P1;HPM_P2
2021/12/21 00:00:55;;;;;;;14.68;5.88;;;3.00;56.10;;;;;;6111117;23;20014;-53
2021/12/21 00:03:21;;;;;;;17.95;7.10;;;3.00;56.10;;;;;;6114635;23;20006;-57
2021/12/21 00:05:48;;;;;;;16.98;6.50;;;3.00;56.10;;;;;;6115128;23;20010;-55
2021/12/21 00:08:16;;;;;;;13.00;5.78;;;2.90;56.10;;;;;;6114198;23;20009;-57
2021/12/21 00:10:46;;;;;;;16.27;5.55;;;2.90;56.20;;;;;;6113845;23;19994;-56
2021/12/21 00:13:41;;;;;;;13.88;6.25;;;2.90;56.20;;;;;;6113531;23;20324;-56
2021/12/21 00:18:41;;;;;;;11.32;5.63;;;2.90;56.40;;;;;;6113535;23;20010;-57
2021/12/21 00:21:20;;;;;;;13.57;6.32;;;2.90;56.50;;;;;;6112960;23;20009;-57
2021/12/21 00:23:50;;;;;;;16.13;6.30;;;2.90;56.50;;;;;;6115489;23;20419;-54
2021/12/21 00:26:21;;;;;;;13.90;6.00;;;2.80;56.50;;;;;;6113981;23;20017;-55
2021/12/21 00:28:57;;;;;;;16.55;6.75;;;2.80;56.50;;;;;;6114407;23;20009;-55
2021/12/21 00:31:25;;;;;;;16.73;6.72;;;2.80;56.50;;;;;;6122354;23;20006;-56
2021/12/21 00:33:51;;;;;;;15.90;6.80;;;2.80;56.40;;;;;;6114755;23;20006;-57
2021/12/21 00:36:21;;;;;;;16.45;6.70;;;2.80;56.50;;;;;;6115188;23;20396;-55
2021/12/21 00:38:50;;;;;;;15.98;6.22;;;2.70;56.50;;;;;;6111817;23;20005;-55
2021/12/21 00:41:17;;;;;;;15.65;6.78;;;2.70;56.60;;;;;;6114610;23;20001;-56
2021/12/21 00:43:44;;;;;;;19.95;6.85;;;2.70;56.60;;;;;;6113198;23;20002;-57
2021/12/21 00:46:11;;;;;;;15.13;6.45;;;2.70;56.50;;;;;;6113723;23;20005;-57
2021/12/21 00:48:46;;;;;;;12.27;6.65;;;2.70;56.50;;;;;;6111471;23;20002;-54
2021/12/21 00:51:12;;;;;;;21.35;7.22;;;2.60;56.50;;;;;;6124013;23;20006;-53
2021/12/21 00:53:40;;;;;;;14.95;6.32;;;2.60;56.60;;;;;;6115599;23;20014;-54
2021/12/21 00:56:06;;;;;;;15.38;6.50;;;2.60;56.60;;;;;;6115438;23;20312;-54
2021/12/21 00:58:32;;;;;;;15.20;6.40;;;2.60;57.10;;;;;;6114938;23;20438;-54
2021/12/21 01:01:04;;;;;;;14.50;6.38;;;2.60;56.60;;;;;;6113097;23;20395;-54
2021/12/21 01:03:35;;;;;;;11.45;6.32;;;2.60;56.60;;;;;;6123338;23;20002;-57
2021/12/21 01:06:15;;;;;;;14.52;5.97;;;2.50;56.60;;;;;;6125361;23;19998;-55
2021/12/21 01:09:00;;;;;;;10.88;6.28;;;2.50;56.70;;;;;;6124643;23;19994;-55
2021/12/21 01:11:34;;;;;;;13.90;5.47;;;2.50;56.60;;;;;;6123221;23;19998;-54
2021/12/21 01:17:12;;;;;;;16.80;6.90;;;2.50;56.60;;;;;;6123056;23;20017;-54
2021/12/21 01:19:43;;;;;;;16.75;6.38;;;2.50;56.50;;;;;;6134754;23;20017;-56
2021/12/21 01:22:24;;;;;;;17.55;6.35;;;2.50;56.50;;;;;;6115272;23;20006;-55
2021/12/21 01:35:19;;;;;;;16.92;6.95;;;2.40;56.50;;;;;;6115031;23;20014;-55
2021/12/21 01:37:48;;;;;;;17.48;6.47;;;2.30;56.60;;;;;;6113451;23;20013;-57
2021/12/21 01:50:55;;;;;;;15.27;6.78;;;2.20;56.80;;;;;;6123135;23;20017;-54
2021/12/21 01:53:21;;;;;;;17.58;6.60;;;2.20;56.90;;;;;;6117733;23;20208;-54
2021/12/21 01:55:47;;;;;;;18.48;6.95;;;2.20;57.00;;;;;;6116961;23;20451;-54
2021/12/21 01:58:14;;;;;;;17.70;6.90;;;2.20;57.10;;;;;;6116174;23;20002;-55
2021/12/21 02:00:41;;;;;;;16.27;7.50;;;2.20;57.30;;;;;;6114325;23;20293;-53
2021/12/21 02:03:09;;;;;;;13.00;6.03;;;2.20;57.30;;;;;;6115229;23;20005;-56
2021/12/21 02:05:37;;;;;;;16.75;7.20;;;2.20;57.30;;;;;;6114861;23;20273;-55
2021/12/21 02:08:05;;;;;;;18.40;6.82;;;2.20;57.30;;;;;;6116892;23;20416;-54
2021/12/21 02:10:31;;;;;;;15.02;5.82;;;2.10;57.30;;;;;;6116057;23;20002;-57
2021/12/21 02:12:57;;;;;;;14.10;6.53;;;2.10;57.30;;;;;;6116218;23;20010;-56
2021/12/21 02:15:25;;;;;;;12.15;5.95;;;2.20;57.40;;;;;;6112158;23;20014;-56
2021/12/21 02:18:23;;;;;;;15.10;6.43;;;2.10;57.20;;;;;;6111650;23;20002;-54
2021/12/21 02:20:49;;;;;;;13.63;6.15;;;2.10;57.10;;;;;;6114841;23;20017;-55
2021/12/21 02:23:21;;;;;;;15.63;5.88;;;2.20;57.10;;;;;;6116017;23;20006;-55
2021/12/21 02:30:54;;;;;;;10.63;5.57;;;2.10;57.10;;;;;;6115561;23;20006;-55
2021/12/21 02:33:21;;;;;;;12.27;5.68;;;2.10;57.10;;;;;;6114738;23;20005;-55
2021/12/21 02:35:48;;;;;;;14.48;5.90;;;2.10;57.00;;;;;;6113513;23;20006;-55
2021/12/21 02:38:14;;;;;;;15.90;5.60;;;2.00;57.00;;;;;;6112602;23;20033;-55
2021/12/21 02:40:41;;;;;;;11.68;5.20;;;2.00;57.00;;;;;;6115185;23;20006;-55
2021/12/21 02:43:09;;;;;;;13.50;5.50;;;2.00;57.00;;;;;;6115876;23;20013;-57
2021/12/21 02:45:35;;;;;;;10.90;5.03;;;2.00;57.10;;;;;;6116339;23;20332;-55
2021/12/21 02:48:01;;;;;;;15.43;5.68;;;2.00;57.20;;;;;;6111900;23;20374;-57
2021/12/21 02:50:27;;;;;;;17.23;5.47;;;2.00;57.20;;;;;;6116302;23;20021;-54
2021/12/21 02:52:54;;;;;;;15.65;6.15;;;2.00;57.10;;;;;;6116195;23;20341;-56
2021/12/21 02:55:20;;;;;;;11.77;5.53;;;2.00;57.10;;;;;;6116269;23;20017;-55
2021/12/21 02:57:46;;;;;;;14.23;5.55;;;1.90;57.10;;;;;;6113915;23;20006;-55
2021/12/21 03:00:13;;;;;;;14.10;5.75;;;2.00;57.20;;;;;;6114308;23;19998;-54
2021/12/21 03:02:39;;;;;;;11.45;5.38;;;1.90;57.10;;;;;;6113758;23;20006;-55
2021/12/21 03:05:06;;;;;;;15.07;5.72;;;2.00;57.10;;;;;;6116405;23;20017;-55
2021/12/21 03:10:08;;;;;;;12.82;6.35;;;1.90;57.10;;;;;;6113238;23;19998;-57
2021/12/21 03:15:22;;;;;;;14.52;5.80;;;1.90;57.20;;;;;;6123526;23;20027;-56
2021/12/21 03:17:48;;;;;;;14.00;5.72;;;1.90;57.30;;;;;;6113012;23;20029;-55
2021/12/21 03:20:15;;;;;;;16.13;6.30;;;1.90;57.30;;;;;;6115698;23;20017;-55
2021/12/21 03:22:42;;;;;;;16.27;6.43;;;1.90;57.30;;;;;;6116995;23;20300;-56
2021/12/21 03:25:09;;;;;;;13.68;6.28;;;1.90;57.20;;;;;;6114395;23;20033;-55
2021/12/21 03:27:36;;;;;;;14.60;6.28;;;1.90;57.20;;;;;;6137663;23;20013;-55
2021/12/21 03:30:04;;;;;;;13.77;6.15;;;1.90;57.20;;;;;;6112709;23;20009;-53
2021/12/21 03:32:30;;;;;;;15.57;5.88;;;1.80;57.20;;;;;;6114073;23;20002;-56
2021/12/21 03:34:57;;;;;;;17.42;5.88;;;1.80;57.30;;;;;;6116851;23;20002;-55
2021/12/21 03:37:23;;;;;;;13.45;5.32;;;1.80;57.30;;;;;;6114815;23;20017;-55
2021/12/21 03:39:52;;;;;;;12.35;5.65;;;1.80;57.30;;;;;;6114180;23;20505;-57
2021/12/21 03:42:18;;;;;;;9.77;5.55;;;1.80;57.30;;;;;;6114277;23;20010;-56
2021/12/21 03:44:47;;;;;;;13.25;5.60;;;1.80;57.20;;;;;;6116516;23;20006;-54
2021/12/21 03:47:16;;;;;;;14.82;5.88;;;1.80;57.20;;;;;;6112418;23;20014;-57
2021/12/21 03:49:53;;;;;;;16.52;6.97;;;1.70;57.20;;;;;;6113841;23;20010;-55
2021/12/21 03:52:22;;;;;;;22.15;6.35;;;1.80;57.30;;;;;;6116006;23;20063;-55
2021/12/21 03:54:52;;;;;;;17.50;6.50;;;1.70;57.30;;;;;;6113799;23;20002;-54
2021/12/21 03:57:19;;;;;;;13.32;6.35;;;1.70;57.20;;;;;;6115186;23;19998;-57
2021/12/21 03:59:48;;;;;;;13.88;5.68;;;1.70;57.10;;;;;;6113346;23;19998;-53
2021/12/21 04:02:16;;;;;;;14.10;5.80;;;1.70;57.20;;;;;;6111799;23;20005;-55
2021/12/21 04:04:43;;;;;;;12.57;6.10;;;1.60;57.10;;;;;;6116104;23;20327;-55
2021/12/21 04:07:10;;;;;;;13.90;6.22;;;1.60;57.10;;;;;;6115486;23;20006;-53
2021/12/21 04:09:36;;;;;;;15.18;5.78;;;1.60;57.20;;;;;;6116069;23;20014;-55
2021/12/21 04:12:03;;;;;;;13.90;5.93;;;1.60;57.20;;;;;;6113190;23;20247;-54
2021/12/21 04:14:31;;;;;;;13.95;6.20;;;1.60;57.20;;;;;;6115045;23;20338;-55
2021/12/21 04:16:58;;;;;;;11.18;5.47;;;1.50;57.20;;;;;;6111550;23;20434;-54
2021/12/21 04:19:24;;;;;;;13.10;5.75;;;1.50;57.20;;;;;;6115081;23;20021;-55
2021/12/21 04:21:51;;;;;;;15.48;5.88;;;1.50;57.20;;;;;;6115282;23;20327;-55
2021/12/21 04:24:17;;;;;;;12.90;5.70;;;1.50;57.10;;;;;;6113353;23;20026;-54
2021/12/21 04:26:43;;;;;;;14.30;5.78;;;1.50;57.10;;;;;;6112802;23;20419;-55
2021/12/21 04:29:10;;;;;;;9.98;5.45;;;1.50;57.10;;;;;;6114940;23;20001;-56
2021/12/21 04:31:36;;;;;;;12.77;6.03;;;1.50;57.10;;;;;;6114221;23;20005;-55
2021/12/21 04:34:02;;;;;;;12.45;5.65;;;1.40;57.00;;;;;;6115666;23;20418;-54
2021/12/21 04:36:30;;;;;;;14.32;6.50;;;1.40;57.10;;;;;;6115710;23;19998;-53
2021/12/21 04:38:58;;;;;;;17.67;6.05;;;1.40;57.00;;;;;;6115024;23;19998;-55
2021/12/21 04:41:27;;;;;;;22.45;7.72;;;1.40;57.00;;;;;;6112786;23;19998;-55
2021/12/21 04:43:58;;;;;;;18.80;6.07;;;1.30;57.10;;;;;;6114951;23;20002;-55
2021/12/21 04:46:26;;;;;;;17.40;6.18;;;1.30;57.20;;;;;;6113545;23;20006;-54
2021/12/21 04:48:53;;;;;;;12.55;6.03;;;1.30;57.20;;;;;;6114882;23;19998;-53
2021/12/21 04:51:20;;;;;;;12.27;5.97;;;1.30;57.20;;;;;;6114501;23;20002;-57
2021/12/21 04:53:46;;;;;;;14.55;6.40;;;1.30;57.20;;;;;;6115754;23;20010;-57
2021/12/21 04:56:13;;;;;;;12.05;5.63;;;1.30;57.20;;;;;;6137384;23;20006;-54
2021/12/21 04:58:39;;;;;;;13.23;5.90;;;1.20;57.20;;;;;;6113388;23;20013;-57
2021/12/21 05:01:06;;;;;;;16.73;6.25;;;1.20;57.30;;;;;;6112987;23;20277;-56
2021/12/21 05:03:32;;;;;;;11.07;5.88;;;1.20;57.40;;;;;;6114794;23;20001;-56
2021/12/21 05:05:59;;;;;;;11.57;5.95;;;1.20;57.50;;;;;;6115218;23;20304;-55
2021/12/21 05:08:31;;;;;;;16.83;7.30;;;1.20;57.60;;;;;;6111838;23;20006;-55
2021/12/21 05:11:04;;;;;;;24.90;11.05;;;1.20;57.60;;;;;;6114370;23;20331;-56
2021/12/21 05:13:32;;;;;;;16.80;7.30;;;1.20;57.60;;;;;;6123175;23;20342;-57
2021/12/21 05:15:59;;;;;;;22.33;6.80;;;1.20;57.70;;;;;;6110225;23;20162;-57
2021/12/21 05:18:26;;;;;;;16.33;6.00;;;1.20;57.70;;;;;;6110137;23;20435;-56
2021/12/21 05:20:52;;;;;;;11.75;5.60;;;1.20;57.60;;;;;;6113306;23;20434;-56
2021/12/21 05:23:19;;;;;;;14.88;6.05;;;1.20;57.70;;;;;;6111768;23;20006;-57
2021/12/21 05:25:46;;;;;;;11.95;5.55;;;1.20;57.70;;;;;;6115709;23;20017;-55
2021/12/21 05:28:14;;;;;;;12.07;5.80;;;1.20;57.70;;;;;;6116650;23;20420;-57
2021/12/21 05:30:41;;;;;;;12.15;5.82;;;1.10;57.70;;;;;;6114516;23;20319;-57
2021/12/21 05:33:08;;;;;;;13.68;5.97;;;1.10;57.70;;;;;;6112660;23;20451;-57
2021/12/21 05:35:36;;;;;;;15.85;6.45;;;1.10;57.80;;;;;;6104837;23;20010;-55
2021/12/21 05:38:06;;;;;;;35.92;13.65;;;1.10;57.80;;;;;;6104090;23;20009;-57
2021/12/21 05:40:44;;;;;;;22.15;8.43;;;1.10;57.80;;;;;;6104220;23;20009;-56
2021/12/21 05:43:11;;;;;;;17.25;7.60;;;1.10;57.80;;;;;;6126075;23;20165;-57
2021/12/21 05:45:39;;;;;;;12.30;6.13;;;1.10;57.70;;;;;;6116137;23;20443;-56
2021/12/21 05:48:06;;;;;;;16.10;6.57;;;1.10;57.80;;;;;;6116391;23;20300;-54
2021/12/21 05:50:32;;;;;;;15.27;6.20;;;1.10;57.80;;;;;;6115484;23;19994;-56
2021/12/21 05:52:58;;;;;;;13.35;5.25;;;1.10;57.70;;;;;;6114191;23;20002;-55
2021/12/21 05:55:25;;;;;;;18.08;5.93;;;1.10;57.60;;;;;;6117124;23;20329;-57
2021/12/21 05:57:51;;;;;;;13.50;5.30;;;1.10;57.60;;;;;;6117063;23;20017;-54
2021/12/21 06:00:22;;;;;;;13.63;5.70;;;1.10;57.50;;;;;;6117165;23;20002;-55
2021/12/21 06:02:48;;;;;;;12.90;5.65;;;1.10;57.50;;;;;;6114963;23;20017;-55
2021/12/21 06:05:14;;;;;;;10.90;5.57;;;1.00;57.50;;;;;;6117373;23;20005;-57
2021/12/21 06:07:41;;;;;;;14.95;6.07;;;1.00;57.50;;;;;;6116860;23;20002;-57
2021/12/21 06:10:15;;;;;;;11.07;5.43;;;1.00;57.60;;;;;;6113507;23;20006;-57
2021/12/21 06:15:35;;;;;;;13.75;6.30;;;1.00;57.70;;;;;;6117324;23;20006;-55
2021/12/21 06:23:58;;;;;;;20.48;8.10;;;1.00;57.80;;;;;;6123861;23;20017;-56
2021/12/21 06:26:18;;;;;;;20.42;7.22;;;1.00;57.80;;;;;;6113777;23;20021;-55
2021/12/21 06:28:46;;;;;;;18.15;7.97;;;1.00;57.80;;;;;;6116333;23;20001;-55
2021/12/21 06:31:14;;;;;;;13.38;6.72;;;1.00;57.80;;;;;;6113114;23;20002;-54
2021/12/21 06:33:41;;;;;;;13.48;6.50;;;1.00;57.70;;;;;;6116061;23;20009;-55
2021/12/21 06:36:08;;;;;;;12.00;5.80;;;1.00;57.70;;;;;;6114887;23;20009;-57
2021/12/21 06:38:34;;;;;;;14.73;6.90;;;0.90;57.60;;;;;;6113159;23;20002;-55
2021/12/21 06:41:01;;;;;;;12.23;5.50;;;1.00;57.70;;;;;;6116094;23;20010;-55
2021/12/21 06:43:27;;;;;;;14.27;6.32;;;0.90;57.80;;;;;;6115908;23;19998;-57
2021/12/21 06:46:19;;;;;;;16.70;5.75;;;0.90;57.80;;;;;;6113304;23;20013;-55
2021/12/21 06:51:50;;;;;;;17.05;6.65;;;0.90;57.90;;;;;;6113494;23;20013;-56
2021/12/21 06:54:16;;;;;;;15.40;5.65;;;0.90;57.90;;;;;;6125809;23;20002;-55
2021/12/21 06:56:43;;;;;;;14.38;6.10;;;0.90;57.80;;;;;;6115054;23;20005;-55
2021/12/21 06:59:10;;;;;;;14.63;6.00;;;0.90;57.70;;;;;;6115992;23;20335;-54
2021/12/21 07:01:38;;;;;;;14.93;6.22;;;0.90;57.70;;;;;;6113796;23;20420;-55
2021/12/21 07:04:09;;;;;;;15.20;6.40;;;0.90;57.80;;;;;;6115405;23;20013;-54
2021/12/21 07:06:39;;;;;;;13.95;5.82;;;0.90;57.80;;;;;;6115151;23;20021;-54
2021/12/21 07:09:23;;;;;;;12.32;5.85;;;0.90;57.90;;;;;;6115246;23;20009;-54
2021/12/21 07:12:12;;;;;;;;;;;0.90;57.90;;;;;;6107869;23;20009;-53
2021/12/21 07:20:02;;;;;;;13.68;6.70;;;0.90;57.80;;;;;;6123888;23;20002;-54
2021/12/21 07:22:28;;;;;;;17.13;6.40;;;0.90;57.80;;;;;;6114815;23;20281;-54
2021/12/21 07:24:55;;;;;;;14.40;6.78;;;0.90;57.90;;;;;;6113987;23;20451;-53
2021/12/21 07:27:21;;;;;;;22.00;9.75;;;0.80;57.90;;;;;;6114346;23;20427;-54
2021/12/21 07:29:49;;;;;;;22.38;10.60;;;0.90;58.00;;;;;;6114426;23;20196;-53
2021/12/21 07:32:16;;;;;;;16.48;7.40;;;0.80;57.90;;;;;;6112771;23;20009;-54
2021/12/21 07:34:42;;;;;;;16.02;6.20;;;0.80;57.90;;;;;;6112078;23;20021;-53
2021/12/21 07:37:11;;;;;;;15.75;6.50;;;0.80;57.80;;;;;;6111661;23;20362;-55
2021/12/21 07:39:37;;;;;;;12.60;6.25;;;0.80;57.70;;;;;;6106085;23;20006;-54
2021/12/21 07:42:05;;;;;;;18.08;7.00;;;0.80;57.80;;;;;;6110830;23;20009;-54
2021/12/21 07:44:31;;;;;;;18.23;6.53;;;0.80;57.80;;;;;;6104436;23;20013;-52
2021/12/21 07:46:58;;;;;;;15.05;5.88;;;0.80;57.90;;;;;;6103301;23;20327;-56
2021/12/21 07:49:24;;;;;;;17.02;6.30;;;0.80;58.00;;;;;;6105133;23;20016;-54
2021/12/21 07:51:50;;;;;;;18.13;7.18;;;0.80;57.90;;;;;;6109162;23;20415;-53
2021/12/21 07:54:21;;;;;;;20.58;6.45;;;0.80;57.90;;;;;;6113312;23;20002;-55
2021/12/21 07:56:48;;;;;;;11.70;5.63;;;0.80;57.90;;;;;;6114391;23;19998;-54
2021/12/21 07:59:14;;;;;;;12.43;6.65;;;0.80;57.90;;;;;;6114225;23;19998;-56
2021/12/21 08:01:42;;;;;;;15.65;6.68;;;0.80;57.90;;;;;;6111302;23;20005;-56
2021/12/21 08:04:09;;;;;;;21.90;6.82;;;0.80;57.90;;;;;;6114117;23;20016;-56
2021/12/21 08:06:37;;;;;;;22.10;6.90;;;0.80;58.00;;;;;;6114531;23;20021;-55
2021/12/21 08:09:04;;;;;;;14.82;5.95;;;0.80;58.10;;;;;;6112847;23;20002;-55
2021/12/21 08:14:01;;;;;;;14.45;6.30;;;0.80;58.10;;;;;;6109666;23;20006;-53
2021/12/21 08:16:27;;;;;;;18.85;7.00;;;0.90;58.20;;;;;;6107757;23;20009;-52
2021/12/21 08:18:53;;;;;;;13.95;7.03;;;0.90;58.20;;;;;;6107274;23;20063;-54
2021/12/21 08:21:27;;;;;;;12.27;5.50;;;0.90;58.20;;;;;;5027460;28;20451;-57
2021/12/21 08:23:53;;;;;;;20.55;6.30;;;0.90;58.30;;;;;;5032180;28;20037;-56
2021/12/21 08:26:19;;;;;;;14.38;6.28;;;0.90;58.80;;;;;;5032476;28;20032;-56
2021/12/21 08:28:46;;;;;;;16.77;6.15;;;0.90;58.40;;;;;;5031086;28;20029;-56
2021/12/21 08:31:12;;;;;;;15.57;6.18;;;0.90;58.40;;;;;;5030631;28;20036;-56
2021/12/21 08:33:40;;;;;;;17.40;6.70;;;1.00;58.50;;;;;;5030161;28;20469;-56
2021/12/21 08:36:08;;;;;;;15.77;7.18;;;1.00;58.40;;;;;;5020262;28;20049;-53
2021/12/21 08:38:41;;;;;;;15.88;6.95;;;1.00;58.40;;;;;;5033903;28;20037;-56
2021/12/21 08:41:08;;;;;;;16.07;6.70;;;1.10;58.50;;;;;;5033984;28;20496;-56
2021/12/21 08:43:35;;;;;;;78.68;29.60;;;1.10;58.40;;;;;;5036256;28;20036;-56
2021/12/21 08:46:02;;;;;;;27.67;12.68;;;1.10;58.40;;;;;;5034522;28;20036;-55
2021/12/21 08:48:30;;;;;;;21.30;7.68;;;1.10;58.40;;;;;;5033591;28;20029;-54
2021/12/21 08:50:57;;;;;;;16.08;7.57;;;1.20;58.40;;;;;;5030598;28;20017;-56
2021/12/21 08:53:24;;;;;;;20.10;7.60;;;1.20;58.40;;;;;;5032665;28;20029;-55
2021/12/21 08:55:52;;;;;;;14.32;6.53;;;1.20;58.30;;;;;;5031993;28;20408;-56
2021/12/21 08:58:19;;;;;;;14.75;6.50;;;1.20;58.40;;;;;;5032317;28;20030;-55
2021/12/21 09:00:46;;;;;;;11.75;6.53;;;1.30;58.50;;;;;;5033076;28;20474;-54
2021/12/21 09:03:13;;;;;;;12.10;6.05;;;1.30;58.50;;;;;;5032126;28;20025;-55
2021/12/21 09:05:40;;;;;;;12.63;5.38;;;1.30;58.50;;;;;;5033740;28;20040;-56
2021/12/21 09:08:08;;;;;;;17.90;5.85;;;1.30;58.50;;;;;;5032082;28;20673;-56
2021/12/21 09:10:35;;;;;;;12.95;5.47;;;1.30;58.50;;;;;;5033956;28;20044;-54
2021/12/21 09:13:01;;;;;;;11.70;5.55;;;1.40;58.50;;;;;;5032125;28;20038;-55
2021/12/21 09:15:29;;;;;;;15.43;5.95;;;1.40;58.60;;;;;;5030820;28;20038;-54
2021/12/21 09:17:56;;;;;;;12.40;6.00;;;1.40;58.60;;;;;;5030389;28;20059;-57
2021/12/21 09:20:24;;;;;;;18.90;6.32;;;1.50;58.60;;;;;;5026461;28;20048;-54
2021/12/21 09:22:51;;;;;;;18.67;7.32;;;1.50;58.70;;;;;;5029274;28;20037;-55
2021/12/21 09:25:18;;;;;;;14.55;7.00;;;1.50;58.70;;;;;;5032058;28;20036;-54
2021/12/21 09:27:45;;;;;;;15.02;6.95;;;1.60;58.80;;;;;;5028349;28;20501;-54
2021/12/21 09:30:14;;;;;;;21.20;11.10;;;1.60;58.70;;;;;;5033938;28;20036;-57
2021/12/21 09:32:41;;;;;;;20.42;10.88;;;1.60;58.70;;;;;;5016498;28;20495;-55
2021/12/21 09:35:08;;;;;;;15.82;11.32;;;1.70;58.80;;;;;;5017569;28;20037;-55
2021/12/21 09:37:35;;;;;;;23.05;10.57;;;1.70;58.80;;;;;;5018925;28;20030;-56
2021/12/21 09:40:05;;;;;;;26.05;13.77;;;1.80;58.90;;;;;;5015830;28;20052;-54
2021/12/21 09:42:32;;;;;;;23.35;13.05;;;1.80;58.90;;;;;;5018072;28;20042;-55
2021/12/21 09:44:59;;;;;;;38.15;17.92;;;1.80;58.90;;;;;;5017060;28;20025;-56
2021/12/21 09:47:26;;;;;;;25.25;11.00;;;1.90;59.40;;;;;;5016696;28;20029;-57
2021/12/21 09:49:54;;;;;;;23.65;11.85;;;1.90;59.00;;;;;;5016000;28;20487;-55
2021/12/21 09:52:29;;;;;;;31.55;15.15;;;1.90;59.00;;;;;;5015728;28;20029;-56
2021/12/21 09:54:57;;;;;;;40.17;20.73;;;2.00;59.10;;;;;;5017712;28;20017;-56
2021/12/21 09:57:23;;;;;;;40.55;18.00;;;2.00;59.10;;;;;;5016412;28;20034;-57
2021/12/21 09:59:50;;;;;;;47.47;21.80;;;2.00;59.10;;;;;;5015618;28;20037;-56
2021/12/21 10:02:19;;;;;;;40.13;19.17;;;2.10;59.10;;;;;;5012354;28;20612;-53
2021/12/21 10:04:50;;;;;;;16.55;8.55;;;2.20;59.20;;;;;;5016242;28;20386;-56
2021/12/21 10:07:18;;;;;;;19.98;6.45;;;2.20;59.20;;;;;;5014287;28;20029;-55
2021/12/21 10:09:47;;;;;;;11.93;5.00;;;2.20;59.30;;;;;;5017037;28;20512;-56
2021/12/21 10:12:25;;;;;;;8.07;4.00;;;2.30;59.30;;;;;;5013594;28;20033;-55
2021/12/21 10:15:03;;;;;;;8.02;4.47;;;2.30;59.30;;;;;;5010319;28;20028;-55
2021/12/21 10:17:32;;;;;;;12.23;4.88;;;2.40;59.30;;;;;;5015796;28;20052;-53
2021/12/21 10:20:00;;;;;;;15.20;5.35;;;2.40;59.20;;;;;;5012064;28;20427;-55
2021/12/21 10:22:27;;;;;;;11.77;5.88;;;2.40;59.20;;;;;;5013953;28;20045;-54
2021/12/21 10:24:54;;;;;;;54.63;22.98;;;2.50;59.20;;;;;;5011155;28;20026;-56
2021/12/21 10:27:24;;;;;;;26.08;12.32;;;2.50;59.10;;;;;;5011161;28;20048;-55
2021/12/21 10:29:54;;;;;;;22.10;9.27;;;2.60;59.20;;;;;;5010709;28;20017;-55
2021/12/21 10:32:26;;;;;;;13.57;6.85;;;2.60;59.10;;;;;;5015080;28;20033;-55
2021/12/21 10:35:02;;;;;;;10.88;6.63;;;2.70;59.10;;;;;;5017278;28;20036;-53
2021/12/21 10:37:32;;;;;;;17.60;9.25;;;2.70;59.10;;;;;;5018929;28;20049;-56
2021/12/21 10:40:05;;;;;;;11.20;5.68;;;2.80;59.10;;;;;;5012372;28;20029;-55
2021/12/21 10:42:42;;;;;;;8.60;5.00;;;2.80;59.00;;;;;;5014153;28;20040;-55
2021/12/21 10:45:09;;;;;;;9.57;5.22;;;2.80;59.00;;;;;;5019806;28;20773;-56
2021/12/21 10:47:36;;;;;;;10.93;4.25;;;2.90;59.00;;;;;;4999584;28;20037;-56
2021/12/21 10:50:05;;;;;;;13.32;5.82;;;2.90;58.90;;;;;;5016762;28;20473;-57
2021/12/21 10:52:32;;;;;;;11.90;5.18;;;3.00;59.00;;;;;;5029461;28;20576;-57
2021/12/21 10:54:58;;;;;;;10.13;5.45;;;3.00;58.90;;;;;;5018027;28;20026;-56
2021/12/21 10:57:31;;;;;;;12.50;5.15;;;3.10;58.90;;;;;;5013755;28;20037;-57
2021/12/21 11:00:00;;;;;;;9.88;4.70;;;3.10;58.80;;;;;;5013296;28;20046;-55
2021/12/21 11:02:31;;;;;;;14.85;6.15;;;3.20;58.80;;;;;;5012672;28;20422;-57
2021/12/21 11:05:11;;;;;;;10.50;4.82;;;3.20;58.80;;;;;;5014789;28;20029;-57
2021/12/21 11:07:47;;;;;;;9.60;4.18;;;3.20;58.80;;;;;;5000364;28;20045;-57
2021/12/21 11:10:27;;;;;;;10.43;3.97;;;3.30;58.70;;;;;;5013891;28;20030;-56
2021/12/21 11:13:00;;;;;;;7.75;3.90;;;3.30;58.60;;;;;;5012187;28;20056;-57
2021/12/21 11:15:29;;;;;;;12.30;4.68;;;3.40;58.60;;;;;;5014611;28;20038;-57
2021/12/21 11:18:03;;;;;;;11.43;4.25;;;3.40;58.60;;;;;;5014969;28;20355;-57
2021/12/21 11:20:29;;;;;;;7.55;4.05;;;3.40;58.50;;;;;;5013291;28;20037;-54
2021/12/21 11:22:56;;;;;;;11.15;4.30;;;3.50;58.60;;;;;;5014488;28;20030;-52
2021/12/21 11:25:23;;;;;;;8.00;4.13;;;3.50;58.60;;;;;;5008752;28;20037;-57
2021/12/21 11:27:50;;;;;;;8.70;3.97;;;3.50;58.50;;;;;;5011621;28;20041;-57
2021/12/21 11:30:24;;;;;;;9.48;3.85;;;3.60;58.50;;;;;;5010044;28;20038;-56
2021/12/21 11:32:52;;;;;;;10.32;3.67;;;3.60;58.50;;;;;;5013857;28;20030;-55
2021/12/21 11:37:59;;;;;;;10.45;3.72;;;3.70;58.60;;;;;;5008539;28;20026;-53
2021/12/21 11:40:35;;;;;;;8.05;3.45;;;3.70;58.50;;;;;;5011998;28;20037;-57
2021/12/21 11:43:22;;;;;;;9.70;3.65;;;3.80;58.40;;;;;;5010485;28;20037;-57
2021/12/21 11:46:06;;;;;;;10.00;3.38;;;3.80;58.30;;;;;;5009066;28;20424;-57
2021/12/21 11:48:48;;;;;;;9.35;3.33;;;3.80;58.30;;;;;;5010528;28;20381;-54
2021/12/21 11:51:15;;;;;;;7.45;3.53;;;3.90;58.30;;;;;;5014137;28;20351;-55
2021/12/21 11:53:42;;;;;;;7.35;3.08;;;3.90;58.30;;;;;;5017805;28;20048;-53
2021/12/21 11:56:16;;;;;;;6.60;3.45;;;3.90;58.20;;;;;;5018232;28;20029;-54
2021/12/21 11:58:42;;;;;;;9.35;3.58;;;4.00;58.30;;;;;;5006825;28;20040;-54
2021/12/21 12:01:22;;;;;;;6.60;2.92;;;4.00;58.20;;;;;;5017853;28;20038;-55
2021/12/21 12:04:01;;;;;;;9.52;3.58;;;4.10;58.20;;;;;;5014278;28;20017;-57
2021/12/21 12:06:42;;;;;;;9.80;2.88;;;4.10;58.10;;;;;;5018829;28;20041;-55
2021/12/21 12:09:08;;;;;;;11.43;2.90;;;4.10;58.10;;;;;;5016715;28;20351;-56
2021/12/21 12:11:37;;;;;;;9.82;3.53;;;4.20;58.20;;;;;;5018974;28;20038;-56
2021/12/21 12:14:13;;;;;;;9.05;2.97;;;4.20;58.10;;;;;;5019775;28;20398;-56
2021/12/21 12:16:58;;;;;;;8.45;2.50;;;4.20;58.00;;;;;;5017107;28;20052;-56
2021/12/21 12:19:32;;;;;;;8.35;3.20;;;4.30;58.00;;;;;;5014407;28;20042;-56
2021/12/21 12:22:04;;;;;;;8.93;3.03;;;4.30;58.00;;;;;;5016471;28;20041;-55
2021/12/21 12:24:37;;;;;;;8.20;2.40;;;4.30;58.00;;;;;;5017908;28;20029;-55
2021/12/21 12:27:09;;;;;;;7.05;3.00;;;4.40;57.90;;;;;;5018941;28;20037;-55
2021/12/21 12:29:55;;;;;;;7.63;3.45;;;4.40;57.90;;;;;;5005226;28;20034;-56
2021/12/21 12:32:36;;;;;;;9.93;3.72;;;4.40;57.70;;;;;;5017250;28;20040;-56
2021/12/21 12:35:19;;;;;;;14.38;4.47;;;4.50;57.80;;;;;;5017697;28;20017;-55
2021/12/21 12:37:53;;;;;;;10.05;5.32;;;4.50;57.60;;;;;;5017401;28;20516;-52
2021/12/21 12:40:28;;;;;;;9.48;3.50;;;4.50;57.50;;;;;;5017280;28;20479;-55
2021/12/21 12:43:03;;;;;;;16.13;3.75;;;4.60;57.60;;;;;;5017900;28;20343;-56
2021/12/21 12:45:37;;;;;;;9.80;3.83;;;4.60;57.60;;;;;;5017786;28;20041;-57
2021/12/21 12:48:04;;;;;;;;;;;4.60;57.40;;;;;;5017409;28;20297;-54
2021/12/21 12:50:39;;;;;;;9.40;3.08;;;4.70;57.50;;;;;;5016555;28;19944;-54
2021/12/21 12:53:07;;;;;;;7.63;2.97;;;4.70;57.40;;;;;;5020067;28;20399;-55
2021/12/21 12:55:59;;;;;;;8.68;3.22;;;4.80;57.40;;;;;;5019131;28;20397;-56
2021/12/21 12:58:28;;;;;;;7.18;3.45;;;4.80;57.30;;;;;;5010851;28;20041;-56
2021/12/21 13:01:05;;;;;;;9.73;3.20;;;4.80;57.40;;;;;;5015045;28;20927;-55
2021/12/21 13:03:40;;;;;;;9.13;3.10;;;4.80;57.30;;;;;;5015312;28;20501;-55
2021/12/21 13:06:34;;;;;;;8.70;3.15;;;4.80;57.20;;;;;;5016779;28;20389;-54
2021/12/21 13:09:03;;;;;;;7.78;2.88;;;4.90;57.10;;;;;;5022327;28;20255;-54
2021/12/21 13:11:32;;;;;;;12.63;3.10;;;4.90;57.20;;;;;;5022269;28;20033;-56
2021/12/21 13:14:00;;;;;;;9.45;3.20;;;4.90;57.10;;;;;;5022771;28;20041;-54
2021/12/21 13:16:33;;;;;;;5.35;2.50;;;4.90;57.10;;;;;;5021168;28;20037;-57
2021/12/21 13:19:03;;;;;;;11.93;3.80;;;4.90;57.10;;;;;;5019329;28;20045;-54
2021/12/21 13:21:33;;;;;;;10.68;3.80;;;5.00;57.20;;;;;;5022972;28;20057;-55
2021/12/21 13:24:10;;;;;;;7.35;3.90;;;5.00;57.20;;;;;;5020140;28;20048;-57
2021/12/21 13:26:54;;;;;;;9.60;3.60;;;5.00;57.10;;;;;;5022407;28;20026;-54
2021/12/21 13:29:27;;;;;;;7.35;3.30;;;5.00;57.10;;;;;;5006574;28;20528;-55
2021/12/21 13:31:55;;;;;;;11.15;3.25;;;5.10;57.10;;;;;;5022507;28;20084;-56
2021/12/21 13:34:23;;;;;;;8.43;3.13;;;5.00;57.00;;;;;;5023164;28;20042;-55
2021/12/21 13:36:53;;;;;;;10.07;3.10;;;5.10;57.00;;;;;;5016933;28;20029;-56
2021/12/21 13:39:28;;;;;;;7.13;3.22;;;5.10;57.00;;;;;;5017905;28;20489;-55
2021/12/21 13:41:59;;;;;;;13.55;3.97;;;5.10;57.00;;;;;;5020226;28;20021;-55
2021/12/21 13:44:28;;;;;;;11.32;4.05;;;5.10;57.00;;;;;;5022062;28;20048;-56
2021/12/21 13:46:56;;;;;;;10.70;3.42;;;5.10;56.90;;;;;;5021126;28;20030;-54
2021/12/21 13:49:23;;;;;;;10.40;3.58;;;5.10;56.90;;;;;;5020728;28;20041;-55
2021/12/21 13:52:01;;;;;;;10.88;3.55;;;5.10;56.90;;;;;;5021776;28;20026;-55
2021/12/21 13:54:28;;;;;;;8.18;3.55;;;5.20;56.90;;;;;;5022932;28;20354;-55
2021/12/21 13:56:55;;;;;;;6.30;3.10;;;5.10;56.90;;;;;;5022871;28;20026;-55
2021/12/21 13:59:22;;;;;;;11.20;3.30;;;5.20;56.90;;;;;;5019056;28;20030;-54